ADDS METAR Data INFO
IDs: Format: Raw Decoded Include TAF

Data at: 0102 UTC 21 Oct 2017

KJSV 210055Z AUTO 11009KT 10SM CLR 20/15 A2997 RMK AO2
KJSV 210035Z AUTO 11009G14KT 10SM CLR 21/15 A2997 RMK AO2
KJSV 210015Z AUTO 10010G17KT 10SM SCT100 21/15 A2996 RMK AO2
KJSV 202355Z AUTO 11012G17KT 10SM SCT100 22/15 A2996 RMK AO2
KJSV 202335Z AUTO 12012G16KT 10SM CLR 22/14 A2997 RMK AO2
KJSV 202315Z AUTO 12006G14KT 10SM CLR 23/14 A2997 RMK AO2
KJSV 202255Z AUTO 13009G14KT 10SM CLR 23/14 A2998 RMK AO2
KJSV 202235Z AUTO 14008G15KT 10SM CLR 25/14 A2998 RMK AO2
KJSV 202215Z AUTO 14008G15KT 095V155 10SM CLR 26/14 A2999 RMK AO2
KJSV 202155Z AUTO 15008KT 105V175 10SM SCT038 SCT080 26/15 A3000 RMK AO2
KJSV 202135Z AUTO 13008KT 345V145 10SM SCT038 SCT080 26/15 A3000 RMK AO2
KJSV 202115Z AUTO 13010G14KT 10SM SCT040 27/15 A3000 RMK AO2 LTG DSNT S
KJSV 202055Z AUTO 14009G15KT 10SM CLR 28/15 A3000 RMK AO2
KJSV 202035Z AUTO 15008KT 10SM SCT042 SCT085 28/16 A3000 RMK AO2
KJSV 202015Z AUTO 13008KT 10SM SCT040 SCT080 27/15 A3001 RMK AO2 LTG DSNT S
KJSV 201955Z AUTO 13010G14KT 10SM SCT080 27/16 A3002 RMK AO2
KJSV 201935Z AUTO 12007KT 10SM SCT080 26/16 A3003 RMK AO2
KJSV 201915Z AUTO 09006KT 10SM SCT080 22/15 A3005 RMK AO2
KJSV 201855Z AUTO 12008G14KT 10SM SCT080 22/14 A3007 RMK AO2
KJSV 201835Z AUTO 11007KT 10SM SCT080 21/13 A3008 RMK AO2
KJSV 201815Z AUTO 09007KT 10SM SCT080 21/13 A3009 RMK AO2
KJSV 201755Z AUTO 09007KT 10SM SCT080 20/13 A3010 RMK AO2
KJSV 201735Z AUTO 10006KT 10SM SCT090 19/13 A3012 RMK AO2
KJSV 201715Z AUTO 10005KT 10SM SCT090 20/13 A3014 RMK AO2
KJSV 201655Z AUTO 11005KT 10SM CLR 20/13 A3013 RMK AO2 LTG DSNT S
KJSV 201635Z AUTO 10006KT 10SM SCT065 19/13 A3013 RMK AO2 LTG DSNT S
KJSV 201615Z AUTO 10006KT 10SM SCT008 18/14 A3014 RMK AO2
KJSV 201555Z AUTO 11006KT 10SM -RA SCT008 SCT012 17/12 A3014 RMK AO2
KJSV 201535Z AUTO 08007KT 10SM CLR 18/12 A3014 RMK AO2
KJSV 201515Z AUTO 09006KT 10SM CLR 17/13 A3015 RMK AO2
KJSV 201455Z AUTO 08004KT 10SM CLR 16/12 A3015 RMK AO2
KJSV 201435Z AUTO 06004KT 10SM CLR 16/12 A3015 RMK AO2
KJSV 201415Z AUTO 06004KT 10SM CLR 16/12 A3015 RMK AO2
KJSV 201355Z AUTO 08005KT 10SM CLR 15/12 A3016 RMK AO2
KJSV 201335Z AUTO 08008KT 10SM CLR 15/12 A3015 RMK AO2
KJSV 201315Z AUTO 06005KT 10SM CLR 14/11 A3015 RMK AO2
KJSV 201255Z AUTO 09006KT 10SM CLR 13/10 A3015 RMK AO2
KJSV 201235Z AUTO 00000KT 10SM CLR 13/10 A3014 RMK AO2
KJSV 201215Z AUTO 00000KT 10SM CLR 13/10 A3013 RMK AO2
KJSV 201155Z AUTO 08004KT 10SM CLR 13/11 A3013 RMK AO2
KJSV 201135Z AUTO 06006KT 10SM CLR 13/10 A3014 RMK AO2
KJSV 201115Z AUTO 11003KT 10SM CLR 13/10 A3015 RMK AO2
KJSV 201055Z AUTO 09005KT 10SM CLR 13/10 A3014 RMK AO2
KJSV 201035Z AUTO 09004KT 10SM CLR 13/11 A3015 RMK AO2
KJSV 201015Z AUTO 10006KT 10SM CLR 14/11 A3014 RMK AO2
KJSV 200955Z AUTO 09006KT 10SM CLR 13/10 A3015 RMK AO2
KJSV 200935Z AUTO 09006KT 10SM CLR 13/10 A3014 RMK AO2
KJSV 200915Z AUTO 11005KT 10SM CLR 13/10 A3015 RMK AO2
KJSV 200855Z AUTO 10004KT 10SM CLR 13/10 A3015 RMK AO2
KJSV 200835Z AUTO 09005KT 10SM CLR 14/10 A3015 RMK AO2
KJSV 200815Z AUTO 08005KT 10SM CLR 15/10 A3015 RMK AO2
KJSV 200755Z AUTO 08004KT 10SM CLR 15/10 A3015 RMK AO2
KJSV 200735Z AUTO 08005KT 10SM CLR 15/10 A3015 RMK AO2
KJSV 200715Z AUTO 09004KT 10SM CLR 15/11 A3015 RMK AO2
KJSV 200655Z AUTO 08006KT 10SM CLR 15/11 A3015 RMK AO2
KJSV 200635Z AUTO 09005KT 10SM CLR 15/11 A3015 RMK AO2
KJSV 200615Z AUTO 08005KT 10SM CLR 15/11 A3015 RMK AO2
KJSV 200555Z AUTO 07005KT 10SM CLR 15/11 A3015 RMK AO2
KJSV 200535Z AUTO 09005KT 10SM CLR 15/11 A3015 RMK AO2
KJSV 200515Z AUTO 09005KT 10SM CLR 15/11 A3015 RMK AO2
KJSV 200455Z AUTO 08005KT 10SM CLR 16/11 A3015 RMK AO2
KJSV 200435Z AUTO 08004KT 10SM CLR 16/11 A3015 RMK AO2
KJSV 200415Z AUTO 08003KT 10SM CLR 16/11 A3015 RMK AO2
KJSV 200355Z AUTO 07003KT 10SM CLR 16/11 A3014 RMK AO2
KJSV 200335Z AUTO 08004KT 10SM CLR 16/12 A3013 RMK AO2
KJSV 200315Z AUTO 08005KT 10SM CLR 16/12 A3013 RMK AO2
KJSV 200255Z AUTO 08005KT 10SM CLR 16/11 A3013 RMK AO2
KJSV 200235Z AUTO 08004KT 10SM CLR 16/10 A3012 RMK AO2
KJSV 200215Z AUTO 00000KT 10SM CLR 17/11 A3012 RMK AO2
KJSV 200155Z AUTO 07004KT 10SM CLR 17/11 A3012 RMK AO2
KJSV 200135Z AUTO 08004KT 10SM CLR 17/11 A3012 RMK AO2
KJSV 200115Z AUTO 09004KT 10SM CLR 18/11 A3012 RMK AO2
KJSV 200055Z AUTO 07004KT 10SM CLR 18/11 A3012 RMK AO2
KJSV 200035Z AUTO 00000KT 10SM CLR 20/10 A3012 RMK AO2
KJSV 200015Z AUTO 08003KT 10SM CLR 20/11 A3012 RMK AO2
KJSV 192355Z AUTO 10003KT 10SM CLR 22/12 A3012 RMK AO2
KJSV 192335Z AUTO 10004KT 10SM CLR 23/12 A3011 RMK AO2
KJSV 192315Z AUTO 10003KT 10SM CLR 25/12 A3012 RMK AO2
KJSV 192255Z AUTO 13003KT 10SM CLR 26/10 A3012 RMK AO2
KJSV 192235Z AUTO 12003KT 10SM CLR 26/10 A3012 RMK AO2
KJSV 192215Z AUTO 13003KT 10SM CLR 26/09 A3012 RMK AO2
KJSV 192155Z AUTO 12003KT 10SM CLR 26/10 A3013 RMK AO2
KJSV 192135Z AUTO 14005KT 10SM CLR 26/10 A3013 RMK AO2
KJSV 192115Z AUTO 12003KT 10SM CLR 27/11 A3013 RMK AO2
KJSV 192055Z AUTO 15005KT 10SM CLR 28/10 A3013 RMK AO2
KJSV 192035Z AUTO 00000KT 10SM CLR 28/11 A3014 RMK AO2
KJSV 192015Z AUTO 20003KT 10SM CLR 28/12 A3014 RMK AO2
KJSV 191955Z AUTO 16005KT 10SM CLR 27/12 A3015 RMK AO2
KJSV 191935Z AUTO 16004KT 7SM CLR 27/11 A3015 RMK AO2
KJSV 191915Z AUTO 15003KT 10SM CLR 27/12 A3016 RMK AO2
KJSV 191855Z AUTO 17005KT 10SM CLR 26/12 A3017 RMK AO2
KJSV 191835Z AUTO 21004KT 10SM CLR 26/12 A3018 RMK AO2
KJSV 191815Z AUTO 22005KT 10SM CLR 26/12 A3019 RMK AO2
KJSV 191755Z AUTO 00000KT 10SM CLR 26/11 A3020 RMK AO2
KJSV 191735Z AUTO 20005KT 10SM CLR 25/12 A3020 RMK AO2
KJSV 191715Z AUTO 20005KT 10SM CLR 25/12 A3020 RMK AO2
KJSV 191655Z AUTO 19004KT 10SM CLR 25/13 A3021 RMK AO2
KJSV 191635Z AUTO 15003KT 10SM CLR 23/15 A3021 RMK AO2
KJSV 191615Z AUTO 10003KT 10SM CLR 22/13 A3021 RMK AO2
KJSV 191555Z AUTO 08003KT 10SM CLR 21/13 A3022 RMK AO2
KJSV 191535Z AUTO 08003KT 10SM CLR 20/13 A3022 RMK AO2
KJSV 191515Z AUTO 08005KT 10SM CLR 18/12 A3022 RMK AO2
KJSV 191455Z AUTO 08006KT 10SM CLR 16/12 A3022 RMK AO2
KJSV 191435Z AUTO 06003KT 10SM CLR 15/12 A3022 RMK AO2
KJSV 191415Z AUTO 07005KT 10SM CLR 14/11 A3021 RMK AO2
KJSV 191355Z AUTO 05003KT 10SM CLR 13/10 A3020 RMK AO2
KJSV 191335Z AUTO 06003KT 10SM CLR 12/10 A3020 RMK AO2
KJSV 191315Z AUTO 07003KT 10SM CLR 12/09 A3019 RMK AO2